Time;durP1;ratioP1;P1;durP2;ratioP2;P2;SDS_P1;SDS_P2;PMS_P1;PMS_P2;Temp;Humidity;BMP_temperature;BMP_pressure;BME280_temperature;BME280_humidity;BME280_pressure;Samples;Min_cycle;Max_cycle;Signal;HPM_P1;HPM_P2
2022/04/17 00:03:02;;;;;;;;;14.60;14.00;;;;;11.12;41.22;99871.72;6246439;27;99196;-72
2022/04/17 00:06:06;;;;;;;;;13.00;12.00;;;;;11.20;41.95;99892.31;6246337;27;96635;-72
2022/04/17 00:09:09;;;;;;;;;16.20;15.00;;;;;11.19;42.21;99902.25;6229247;27;98526;-71
2022/04/17 00:12:13;;;;;;;;;16.00;14.40;;;;;11.09;42.46;99903.69;6228767;27;96897;-72
2022/04/17 00:15:16;;;;;;;;;16.60;15.00;;;;;11.00;42.70;99902.16;6246121;27;96968;-72
2022/04/17 00:18:21;;;;;;;;;16.00;15.00;;;;;10.91;42.99;99898.81;6265108;27;97434;-72
2022/04/17 00:21:25;;;;;;;;;17.00;13.00;;;;;10.82;43.38;99900.00;6264253;27;96527;-72
2022/04/17 00:24:28;;;;;;;;;15.00;12.00;;;;;10.78;43.59;99893.34;6246231;27;97079;-72
2022/04/17 00:27:31;;;;;;;;;13.60;12.60;;;;;10.77;43.94;99899.78;6246101;27;99690;-73
2022/04/17 00:30:35;;;;;;;;;12.20;11.20;;;;;10.67;44.13;99899.28;6244619;27;97267;-72
2022/04/17 00:33:40;;;;;;;;;14.40;12.00;;;;;10.61;44.09;99891.97;6244891;27;97495;-74
2022/04/17 00:36:43;;;;;;;;;14.00;11.80;;;;;10.53;44.03;99887.59;6263978;27;96623;-73
2022/04/17 00:39:46;;;;;;;;;14.00;12.00;;;;;10.50;44.08;99900.63;6263947;27;96539;-71
2022/04/17 00:42:49;;;;;;;;;17.00;16.00;;;;;10.43;44.26;99896.03;6263073;27;96557;-72
2022/04/17 00:45:53;;;;;;;;;18.00;14.50;;;;;10.22;44.45;99871.78;6259024;27;96373;-71
2022/04/17 00:48:58;;;;;;;;;18.00;17.20;;;;;10.34;44.69;99893.66;6239179;28;98094;-73
2022/04/17 00:52:02;;;;;;;;;16.60;14.00;;;;;10.26;45.09;99889.25;6220299;28;97917;-72
2022/04/17 00:55:06;;;;;;;;;15.40;13.00;;;;;10.18;45.37;99889.38;6238625;28;96923;-73
2022/04/17 00:58:10;;;;;;;;;14.25;12.50;;;;;10.15;45.42;99891.63;6220586;28;96471;-72
2022/04/17 01:01:13;;;;;;;;;17.50;13.00;;;;;10.14;45.92;99889.94;6230056;27;97970;-72
2022/04/17 01:04:18;;;;;;;;;12.40;11.00;;;;;10.12;45.79;99890.13;6263202;27;97489;-72
2022/04/17 01:07:23;;;;;;;;;14.80;12.60;;;;;10.15;45.66;99881.69;6263553;27;96363;-72
2022/04/17 01:10:27;;;;;;;;;14.40;14.00;;;;;10.17;45.85;99885.03;6245887;27;96969;-71
2022/04/17 01:13:32;;;;;;;;;16.00;13.40;;;;;10.16;45.57;99880.69;6244687;27;96915;-73
2022/04/17 01:16:37;;;;;;;;;16.00;14.40;;;;;10.13;45.59;99880.19;6261817;27;97167;-72
2022/04/17 01:19:41;;;;;;;;;15.00;14.00;;;;;10.14;45.25;99871.09;6261640;27;96715;-72
2022/04/17 01:22:49;;;;;;;;;14.60;13.00;;;;;10.13;45.33;99878.31;6243087;27;97341;-73
2022/04/17 01:29:13;;;;;;;;;13.00;12.00;;;;;10.01;45.76;99869.13;6232445;28;99453;-72
2022/04/17 01:32:16;;;;;;;;;14.00;12.00;;;;;9.95;45.98;99870.72;6237637;27;96552;-71
2022/04/17 01:35:20;;;;;;;;;15.00;13.00;;;;;9.95;46.32;99870.72;6200772;28;99825;-71
2022/04/17 01:38:24;;;;;;;;;15.40;13.40;;;;;9.96;46.43;99871.56;6236560;27;97509;-72
2022/04/17 01:41:28;;;;;;;;;15.00;13.20;;;;;9.90;46.49;99873.16;6234583;28;97375;-71
2022/04/17 01:44:31;;;;;;;;;15.60;14.00;;;;;9.93;46.61;99867.38;6236884;28;96764;-73
2022/04/17 01:47:35;;;;;;;;;13.00;12.00;;;;;9.98;46.67;99864.09;6237592;28;96421;-72
2022/04/17 01:50:38;;;;;;;;;14.00;13.00;;;;;9.95;46.84;99862.66;6239336;27;97447;-72
2022/04/17 01:53:43;;;;;;;;;16.80;14.00;;;;;9.96;46.66;99867.00;6262348;27;98641;-72
2022/04/17 01:56:48;;;;;;;;;14.00;12.00;;;;;9.60;46.84;99812.38;6262079;27;96816;-72
2022/04/17 01:59:51;;;;;;;;;17.00;14.00;;;;;9.86;47.25;99865.66;6242283;27;96799;-71
2022/04/17 02:02:54;;;;;;;;;14.80;13.80;;;;;9.86;47.32;99858.44;6244514;27;96806;-71
2022/04/17 02:05:59;;;;;;;;;16.00;14.00;;;;;9.67;47.31;99840.22;6262086;27;96871;-73
2022/04/17 02:09:07;;;;;;;;;13.00;12.00;;;;;9.87;47.45;99867.34;6227429;27;97889;-72
2022/04/17 02:12:10;;;;;;;;;14.60;12.60;;;;;9.85;47.26;99861.31;6262820;27;96920;-72
2022/04/17 02:15:14;;;;;;;;;12.00;10.00;;;;;9.77;47.29;99854.19;6252151;27;96935;-74
2022/04/17 02:18:17;;;;;;;;;17.40;15.40;;;;;9.69;47.49;99843.53;6219098;28;96661;-73
2022/04/17 02:21:21;;;;;;;;;15.60;14.60;;;;;9.47;47.36;99825.72;6219242;28;97352;-73
2022/04/17 02:24:25;;;;;;;;;18.40;15.40;;;;;9.54;47.55;99845.47;6257107;27;96823;-72
2022/04/17 02:27:29;;;;;;;;;16.00;15.00;;;;;9.46;47.25;99841.03;6227023;28;97062;-72
2022/04/17 02:30:32;;;;;;;;;14.60;13.60;;;;;9.10;47.29;99795.31;6240473;27;99814;-72
2022/04/17 02:33:37;;;;;;;;;18.25;16.75;;;;;9.30;47.35;99854.72;6217313;28;97639;-71
2022/04/17 02:36:41;;;;;;;;;16.00;14.60;;;;;9.23;47.48;99842.25;6236575;28;96553;-71
2022/04/17 02:39:46;;;;;;;;;15.80;14.00;;;;;9.18;47.67;99845.50;6219209;28;99640;-72
2022/04/17 02:42:49;;;;;;;;;16.40;15.00;;;;;9.16;47.92;99852.91;6258262;27;96452;-72
2022/04/17 02:45:53;;;;;;;;;18.20;16.40;;;;;9.17;48.04;99853.75;6260674;27;97844;-72
2022/04/17 02:48:56;;;;;;;;;17.00;16.00;;;;;9.19;48.09;99849.84;6261059;27;97093;-72
2022/04/17 02:51:59;;;;;;;;;16.00;14.60;;;;;8.99;47.96;99819.19;6243608;27;97463;-72
2022/04/17 02:55:04;;;;;;;;;18.00;15.00;;;;;9.25;48.01;99856.31;6261569;27;96439;-73
2022/04/17 02:58:10;;;;;;;;;19.75;15.75;;;;;9.35;47.77;99859.53;6262241;27;96433;-72
2022/04/17 03:07:54;;;;;;;;;19.40;16.40;;;;;9.53;47.14;99852.69;6246074;27;97896;-73
2022/04/17 03:10:59;;;;;;;;;16.00;14.25;;;;;9.09;47.19;99772.13;6264671;27;96900;-74
2022/04/17 03:14:02;;;;;;;;;15.00;13.00;;;;;9.62;46.73;99853.44;6263013;27;96456;-73
2022/04/17 03:17:06;;;;;;;;;18.00;15.00;;;;;9.68;46.35;99855.31;6250225;27;98475;-72
2022/04/17 03:20:10;;;;;;;;;17.00;15.00;;;;;9.66;46.85;99852.00;6264839;27;96507;-72
2022/04/17 03:23:14;;;;;;;;;17.00;16.00;;;;;9.58;46.92;99849.44;6230634;27;98502;-74
2022/04/17 03:26:19;;;;;;;;;15.00;14.00;;;;;9.53;46.87;99855.38;6264492;27;96496;-72
2022/04/17 03:29:22;;;;;;;;;13.00;12.60;;;;;9.48;46.60;99867.78;6245727;27;97523;-74
2022/04/17 03:32:25;;;;;;;;;15.00;14.00;;;;;9.42;46.56;99868.53;6243376;27;99597;-72
2022/04/17 03:35:32;;;;;;;;;17.20;13.20;;;;;9.34;46.39;99864.09;6236605;28;97475;-71
2022/04/17 03:38:35;;;;;;;;;15.00;15.00;;;;;9.35;46.33;99862.22;6238319;27;97519;-73
2022/04/17 03:41:40;;;;;;;;;17.75;15.00;;;;;9.26;46.66;99866.91;6231759;28;96770;-72
2022/04/17 03:44:43;;;;;;;;;15.00;14.40;;;;;9.20;46.49;99867.66;6235456;28;96857;-72
2022/04/17 03:47:47;;;;;;;;;17.00;16.00;;;;;9.19;46.33;99865.16;6237262;28;97457;-71
2022/04/17 03:50:50;;;;;;;;;17.25;15.25;;;;;9.16;46.11;99866.38;6235034;28;97005;-74
2022/04/17 03:53:54;;;;;;;;;13.00;13.00;;;;;9.18;45.46;99867.03;6238078;28;97670;-73
2022/04/17 03:56:58;;;;;;;;;16.75;14.00;;;;;9.16;44.56;99846.69;6236477;28;98524;-72
2022/04/17 04:00:02;;;;;;;;;15.00;14.00;;;;;9.30;43.47;99854.72;6230367;28;97709;-73
2022/04/17 04:03:13;;;;;;;;;12.80;12.00;;;;;9.44;43.80;99872.69;6235120;28;97499;-72
2022/04/17 04:06:17;;;;;;;;;11.00;10.00;;;;;9.52;42.69;99869.06;6234702;28;97004;-72
2022/04/17 04:09:21;;;;;;;;;13.40;12.00;;;;;9.59;42.62;99864.56;6237347;27;97422;-72
2022/04/17 04:12:26;;;;;;;;;10.20;9.00;;;;;9.70;42.43;99866.75;6217391;28;97735;-71
2022/04/17 04:15:31;;;;;;;;;14.00;11.00;;;;;9.79;42.56;99872.84;6237456;27;97482;-72
2022/04/17 04:18:34;;;;;;;;;11.50;10.50;;;;;9.86;41.96;99869.19;6237349;27;97283;-72
2022/04/17 04:21:47;;;;;;;;;12.00;9.33;;;;;9.99;41.72;99865.78;6236231;28;98443;-73
2022/04/17 04:24:53;;;;;;;;;10.00;9.00;;;;;10.10;41.18;99867.94;6236355;28;97674;-72
2022/04/17 04:31:18;;;;;;;;;13.00;11.60;;;;;10.27;41.22;99865.81;6236954;27;96562;-74
2022/04/17 04:34:22;;;;;;;;;10.00;10.00;;;;;10.36;41.54;99865.47;6251838;27;96929;-73
2022/04/17 04:37:25;;;;;;;;;10.80;9.80;;;;;10.28;41.54;99846.75;6245054;27;97631;-71
2022/04/17 04:40:29;;;;;;;;;12.00;11.00;;;;;10.55;41.31;99861.28;6263325;27;97469;-72
2022/04/17 04:43:34;;;;;;;;;10.00;10.00;;;;;10.63;40.77;99863.81;6239852;27;96868;-72
2022/04/17 04:46:37;;;;;;;;;8.60;8.00;;;;;10.73;40.93;99861.59;6243808;27;97401;-71
2022/04/17 04:49:41;;;;;;;;;12.00;11.00;;;;;10.76;40.77;99855.78;6261893;27;96996;-72
2022/04/17 04:52:44;;;;;;;;;11.20;9.80;;;;;11.04;40.55;99865.69;6227046;27;98526;-73
2022/04/17 04:55:47;;;;;;;;;9.60;9.00;;;;;11.07;39.89;99832.88;6223983;27;97485;-74
2022/04/17 04:58:52;;;;;;;;;14.00;12.00;;;;;11.40;39.77;99865.38;6233648;27;98589;-70
2022/04/17 05:01:55;;;;;;;;;14.00;12.00;;;;;11.58;39.38;99857.56;6250570;27;97279;-72
2022/04/17 05:04:59;;;;;;;;;11.40;11.00;;;;;11.71;39.12;99863.81;6240141;27;98477;-71
2022/04/17 05:08:03;;;;;;;;;12.80;11.80;;;;;11.85;38.84;99858.44;6259627;27;97060;-72
2022/04/17 05:11:06;;;;;;;;;11.60;11.60;;;;;11.90;38.52;99858.66;6230247;28;99180;-73
2022/04/17 05:14:11;;;;;;;;;12.00;10.00;;;;;12.00;38.38;99862.63;6239856;27;98434;-72
2022/04/17 05:17:14;;;;;;;;;11.50;9.50;;;;;11.73;38.37;99815.00;6256954;27;97341;-71
2022/04/17 05:20:19;;;;;;;;;13.00;10.00;;;;;12.11;38.06;99867.41;6260993;27;97556;-72
2022/04/17 05:23:26;;;;;;;;;11.50;10.00;;;;;12.08;37.88;99859.72;6260819;27;97547;-74
2022/04/17 05:26:29;;;;;;;;;9.00;8.00;;;;;12.14;37.96;99860.75;6219522;28;97319;-72
2022/04/17 05:29:33;;;;;;;;;11.00;10.40;;;;;12.20;37.24;99870.75;6258921;27;96984;-71
2022/04/17 05:32:37;;;;;;;;;14.60;12.00;;;;;12.14;37.46;99874.28;6260983;27;96624;-72
2022/04/17 05:35:41;;;;;;;;;11.00;9.50;;;;;12.15;37.07;99871.38;6262815;27;96603;-72
2022/04/17 05:38:44;;;;;;;;;11.00;9.00;;;;;12.25;37.38;99870.94;6242062;27;98540;-72
2022/04/17 05:41:49;;;;;;;;;10.00;10.00;;;;;12.40;37.31;99876.16;6240104;27;97534;-70
2022/04/17 05:44:54;;;;;;;;;10.60;9.60;;;;;12.53;36.83;99870.72;6258839;27;97408;-70
2022/04/17 05:47:58;;;;;;;;;11.00;11.00;;;;;12.67;36.64;99874.22;6233796;27;97186;-70
2022/04/17 05:51:03;;;;;;;;;11.60;10.60;;;;;12.81;36.14;99873.97;6233797;27;97648;-72
2022/04/17 05:54:07;;;;;;;;;11.00;10.00;;;;;12.90;36.03;99877.31;6241785;27;98866;-71
2022/04/17 05:57:10;;;;;;;;;11.60;11.00;;;;;13.12;35.99;99865.16;6261266;27;96373;-71
2022/04/17 06:00:16;;;;;;;;;11.00;10.00;;;;;13.27;35.27;99865.72;6260475;27;97495;-70
2022/04/17 06:03:19;;;;;;;;;11.40;10.00;;;;;13.42;35.45;99874.41;6252174;27;97161;-71
2022/04/17 06:06:23;;;;;;;;;11.00;8.00;;;;;13.45;34.84;99870.44;6257543;27;97469;-71
2022/04/17 06:09:26;;;;;;;;;11.00;10.00;;;;;13.54;34.88;99871.84;6260014;27;96960;-70
2022/04/17 06:12:29;;;;;;;;;10.00;9.00;;;;;13.56;34.72;99852.66;6240496;27;97452;-70
2022/04/17 06:15:34;;;;;;;;;10.25;8.25;;;;;13.85;35.08;99869.16;6259128;27;97635;-72
2022/04/17 06:18:37;;;;;;;;;10.00;8.75;;;;;14.09;34.89;99872.94;6239729;27;96472;-73
2022/04/17 06:21:41;;;;;;;;;8.00;7.40;;;;;14.22;33.40;99870.09;6241135;27;97764;-72
2022/04/17 06:24:45;;;;;;;;;8.00;7.25;;;;;14.22;32.90;99878.25;6234839;27;97398;-71
2022/04/17 06:27:49;;;;;;;;;7.00;7.00;;;;;14.25;33.10;99874.28;6259332;27;96630;-73
2022/04/17 06:30:53;;;;;;;;;6.00;6.00;;;;;14.33;32.79;99879.41;6256252;27;97205;-73
2022/04/17 06:33:57;;;;;;;;;7.00;6.00;;;;;14.67;32.98;99876.19;6227920;27;99509;-72
2022/04/17 06:37:01;;;;;;;;;9.80;8.00;;;;;14.97;32.88;99881.72;6255679;27;98000;-70
2022/04/17 06:40:05;;;;;;;;;6.00;6.00;;;;;15.18;31.96;99881.28;6258908;27;97410;-71
2022/04/17 06:43:09;;;;;;;;;7.00;7.00;;;;;15.29;30.97;99876.97;6255801;27;97393;-72
2022/04/17 06:46:14;;;;;;;;;8.00;7.00;;;;;15.47;30.84;99881.56;6261687;27;97422;-72
2022/04/17 06:49:18;;;;;;;;;6.00;6.00;;;;;15.58;30.53;99876.22;6262194;27;96777;-70
2022/04/17 06:52:21;;;;;;;;;6.00;6.00;;;;;15.67;29.97;99871.28;6246501;27;97246;-71
2022/04/17 06:55:24;;;;;;;;;6.00;6.00;;;;;15.90;29.79;99871.34;6247037;27;97451;-71
2022/04/17 06:58:27;;;;;;;;;5.60;5.60;;;;;15.94;28.41;99867.09;6247456;27;96847;-70
2022/04/17 07:01:32;;;;;;;;;5.00;5.00;;;;;16.25;29.12;99871.41;6263322;27;98557;-71
2022/04/17 07:04:35;;;;;;;;;6.00;5.00;;;;;16.55;29.04;99870.50;6260485;27;96624;-72
2022/04/17 07:07:39;;;;;;;;;5.00;4.00;;;;;16.79;27.28;99872.19;6245030;27;97102;-72
2022/04/17 07:10:44;;;;;;;;;5.00;5.00;;;;;16.94;27.41;99869.78;6264504;27;97457;-71
2022/04/17 07:13:47;;;;;;;;;4.60;4.60;;;;;16.99;26.58;99867.19;6265978;27;96730;-71
2022/04/17 07:16:52;;;;;;;;;4.00;3.00;;;;;17.18;24.99;99879.56;6246399;27;98441;-71
2022/04/17 07:19:58;;;;;;;;;4.00;4.00;;;;;17.46;24.41;99869.78;6265339;27;96647;-71
2022/04/17 07:23:01;;;;;;;;;2.00;2.00;;;;;17.69;23.52;99875.97;6263592;27;98043;-71
2022/04/17 07:26:04;;;;;;;;;2.00;2.00;;;;;17.57;23.34;99853.38;6232577;27;98306;-71
2022/04/17 07:29:07;;;;;;;;;2.00;2.00;;;;;17.49;22.55;99880.22;6246147;27;96772;-71
2022/04/17 07:32:12;;;;;;;;;3.00;2.00;;;;;16.97;21.28;99885.66;6230150;27;98520;-72
2022/04/17 07:35:17;;;;;;;;;3.00;3.00;;;;;17.17;22.23;99880.63;6228592;27;97201;-72
2022/04/17 07:38:20;;;;;;;;;4.00;3.40;;;;;17.26;22.48;99872.91;6265340;27;96931;-72
2022/04/17 07:41:25;;;;;;;;;2.00;2.00;;;;;17.53;23.55;99870.47;6247109;27;96678;-72
2022/04/17 07:44:29;;;;;;;;;1.00;1.00;;;;;17.52;21.20;99871.53;6247239;27;97805;-72
2022/04/17 07:47:34;;;;;;;;;4.00;4.00;;;;;17.54;22.31;99869.41;6247375;27;96564;-72
2022/04/17 07:50:37;;;;;;;;;5.00;4.00;;;;;17.53;22.45;99879.47;6265668;27;96843;-71
2022/04/17 07:53:41;;;;;;;;;3.00;3.00;;;;;17.12;22.78;99871.53;6245781;27;96584;-71
2022/04/17 07:56:44;;;;;;;;;7.00;5.00;;;;;16.63;23.28;99860.09;6264896;27;96551;-71
2022/04/17 07:59:50;;;;;;;;;5.00;5.00;;;;;16.59;24.13;99863.53;6233248;27;97424;-70
2022/04/17 08:03:24;;;;;;;;;4.00;4.00;;;;;16.73;25.09;99862.22;6246822;27;98604;-71
2022/04/17 08:06:29;;;;;;;;;4.00;4.00;;;;;16.77;24.36;99839.72;6255351;27;97584;-72
2022/04/17 08:09:32;;;;;;;;;4.60;4.60;;;;;17.16;23.54;99859.06;6241169;27;98770;-71
2022/04/17 08:12:36;;;;;;;;;5.00;5.00;;;;;17.23;23.41;99859.78;6245735;27;97484;-72
2022/04/17 08:15:39;;;;;;;;;3.60;3.60;;;;;17.22;23.36;99856.22;6226908;27;98456;-71
2022/04/17 08:18:43;;;;;;;;;4.75;4.75;;;;;17.05;22.47;99855.34;6264396;27;97606;-73
2022/04/17 08:21:47;;;;;;;;;4.00;4.00;;;;;16.95;22.31;99862.44;6263538;27;97506;-73
2022/04/17 08:24:50;;;;;;;;;4.60;4.00;;;;;16.95;22.97;99855.09;6264414;27;96709;-73
2022/04/17 08:27:56;;;;;;;;;4.00;4.00;;;;;16.81;22.54;99856.44;6245005;27;97323;-71
2022/04/17 08:31:00;;;;;;;;;4.00;3.00;;;;;16.97;23.01;99855.69;6264590;27;96518;-72
2022/04/17 08:34:05;;;;;;;;;3.00;3.00;;;;;17.21;23.08;99856.44;6263810;27;96920;-71
2022/04/17 08:37:08;;;;;;;;;2.40;2.00;;;;;17.53;23.45;99846.75;6263625;27;97134;-71
2022/04/17 08:40:12;;;;;;;;;3.00;3.00;;;;;17.79;22.81;99852.72;6245160;27;96452;-72
2022/04/17 08:43:19;;;;;;;;;2.00;2.00;;;;;17.81;21.53;99850.56;6263077;27;97107;-72
2022/04/17 08:46:22;;;;;;;;;3.00;3.00;;;;;18.00;21.10;99821.97;6228144;27;99563;-71
2022/04/17 08:49:28;;;;;;;;;2.00;2.00;;;;;18.59;20.95;99840.44;6264322;27;97054;-72
2022/04/17 08:52:33;;;;;;;;;2.75;2.75;;;;;18.66;20.24;99833.97;6245978;27;99792;-71
2022/04/17 08:55:37;;;;;;;;;3.00;3.00;;;;;18.73;19.71;99824.50;6262838;27;97526;-72
2022/04/17 08:58:41;;;;;;;;;2.40;2.40;;;;;18.51;20.29;99832.66;6243375;27;98065;-71
2022/04/17 09:01:44;;;;;;;;;3.00;3.00;;;;;18.66;20.95;99831.25;6235901;28;98041;-71
2022/04/17 09:04:49;;;;;;;;;4.00;3.00;;;;;18.82;20.61;99820.25;6255589;27;96856;-72
2022/04/17 09:07:53;;;;;;;;;4.00;4.00;;;;;18.99;20.91;99825.69;6263532;27;96954;-72
2022/04/17 09:10:59;;;;;;;;;3.00;3.00;;;;;18.92;20.34;99823.13;6248589;27;97649;-72
2022/04/17 09:14:03;;;;;;;;;4.00;4.00;;;;;18.62;19.91;99814.50;6263484;27;97521;-71
2022/04/17 09:17:10;;;;;;;;;5.00;4.00;;;;;18.86;21.19;99812.41;6238471;27;96917;-71
2022/04/17 09:20:22;;;;;;;;;3.00;3.00;;;;;19.00;20.85;99800.84;6226802;27;98537;-72
2022/04/17 09:23:36;;;;;;;;;4.00;4.00;;;;;19.01;20.20;99812.56;6228656;27;99705;-71
2022/04/17 09:26:48;;;;;;;;;5.00;4.00;;;;;19.45;20.56;99805.19;6250097;27;97191;-71
2022/04/17 09:29:52;;;;;;;;;2.20;2.00;;;;;19.73;20.96;99793.19;6241378;27;99819;-73
2022/04/17 09:32:55;;;;;;;;;4.00;3.20;;;;;19.76;20.65;99790.75;6249854;27;97493;-71
2022/04/17 09:36:00;;;;;;;;;4.50;3.50;;;;;19.61;20.09;99774.19;6263255;27;96347;-72
2022/04/17 09:39:18;;;;;;;;;5.75;4.25;;;;;19.24;20.70;99793.19;6242497;27;96903;-72
2022/04/17 09:42:23;;;;;;;;;4.60;4.60;;;;;19.29;20.99;99795.16;6238217;28;96496;-72
2022/04/17 09:45:26;;;;;;;;;5.00;5.00;;;;;19.36;20.78;99776.63;6253802;27;96620;-72
2022/04/17 09:48:32;;;;;;;;;3.00;3.00;;;;;19.93;20.84;99781.59;6230124;27;96778;-72
2022/04/17 09:51:36;;;;;;;;;6.00;4.00;;;;;20.27;20.38;99766.53;6227448;27;98523;-72
2022/04/17 09:54:42;;;;;;;;;5.00;4.33;;;;;20.09;19.88;99750.50;6262931;27;96660;-72
2022/04/17 09:57:45;;;;;;;;;4.00;4.00;;;;;20.10;19.89;99771.31;6262893;27;97497;-72
2022/04/17 10:00:52;;;;;;;;;3.80;3.80;;;;;20.48;20.22;99768.31;6262902;27;98002;-71
2022/04/17 10:03:56;;;;;;;;;5.00;4.00;;;;;20.77;19.71;99744.91;6222363;28;97813;-71
2022/04/17 10:07:02;;;;;;;;;3.00;3.00;;;;;20.89;19.34;99763.88;6237791;27;96356;-72
2022/04/17 10:10:07;;;;;;;;;5.00;5.00;;;;;20.70;19.41;99765.44;6262990;27;98027;-71
2022/04/17 10:13:19;;;;;;;;;3.75;3.75;;;;;20.57;19.88;99766.75;6259722;27;97506;-72
2022/04/17 10:16:23;;;;;;;;;6.00;5.00;;;;;20.35;20.33;99757.00;6263939;27;96355;-73
2022/04/17 10:19:27;;;;;;;;;5.00;5.00;;;;;20.07;20.09;99752.69;6244810;27;98335;-72
2022/04/17 10:22:34;;;;;;;;;7.00;7.00;;;;;19.39;20.22;99705.03;6247216;27;96376;-73
2022/04/17 10:25:42;;;;;;;;;4.00;4.00;;;;;18.85;19.31;99706.91;6247262;27;96689;-73
2022/04/17 10:28:50;;;;;;;;;4.00;4.00;;;;;19.10;20.53;99750.09;6265109;27;96586;-71
2022/04/17 10:32:16;;;;;;;;;4.00;4.00;;;;;19.03;19.30;99732.00;6228198;27;96525;-71
2022/04/17 10:35:27;;;;;;;;;3.00;2.40;;;;;19.85;20.08;99742.66;6264591;27;97455;-73
2022/04/17 10:38:45;;;;;;;;;3.00;3.00;;;;;20.79;19.62;99730.13;6224345;28;96644;-72
2022/04/17 10:41:50;;;;;;;;;4.20;4.00;;;;;20.87;18.90;99726.84;6248272;27;99512;-73
2022/04/17 10:45:02;;;;;;;;;4.00;4.00;;;;;20.13;17.25;99718.78;6242134;27;98412;-72
2022/04/17 10:48:10;;;;;;;;;4.00;4.00;;;;;19.86;18.53;99710.66;6266593;27;97554;-72
2022/04/17 10:51:16;;;;;;;;;5.00;5.00;;;;;19.76;18.85;99707.81;6245558;27;97387;-72
2022/04/17 10:54:20;;;;;;;;;5.00;5.00;;;;;19.77;18.76;99702.09;6247921;27;96894;-72
2022/04/17 10:57:25;;;;;;;;;4.33;4.33;;;;;19.55;17.76;99697.81;6248348;27;96487;-73
2022/04/17 11:00:36;;;;;;;;;5.00;5.00;;;;;19.58;18.79;99710.97;6265689;27;96821;-73
2022/04/17 11:03:54;;;;;;;;;3.00;3.00;;;;;19.58;19.52;99711.78;6241634;27;97406;-72
2022/04/17 11:07:29;;;;;;;;;4.00;4.00;;;;;19.60;19.72;99704.13;6223074;28;96533;-72
2022/04/17 11:10:43;;;;;;;;;3.00;3.00;;;;;19.48;19.10;99695.28;6222787;28;96700;-73
2022/04/17 11:14:09;;;;;;;;;2.00;2.00;;;;;19.65;20.07;99695.16;6223684;28;97213;-72
2022/04/17 11:17:13;;;;;;;;;2.60;2.60;;;;;19.27;19.08;99674.28;6222983;27;100110;-73
2022/04/17 11:20:17;;;;;;;;;6.00;6.00;;;;;19.48;19.31;99689.00;6240810;28;97660;-72
2022/04/17 11:23:58;;;;;;;;;4.00;4.00;;;;;19.85;19.62;99687.94;6226444;27;97444;-73
2022/04/17 11:27:10;;;;;;;;;4.80;4.20;;;;;20.02;18.97;99682.31;6222431;27;97271;-71
2022/04/17 11:30:35;;;;;;;;;4.00;4.00;;;;;19.78;19.00;99672.84;6235704;28;97360;-71
2022/04/17 11:33:39;;;;;;;;;5.50;5.00;;;;;19.82;19.56;99684.91;6245236;27;96953;-73
2022/04/17 11:36:43;;;;;;;;;5.20;5.20;;;;;19.69;20.34;99677.97;6244426;27;98624;-72
2022/04/17 11:39:47;;;;;;;;;5.00;5.00;;;;;19.59;20.73;99668.88;6220071;27;99852;-72
2022/04/17 11:42:54;;;;;;;;;5.00;4.40;;;;;19.36;20.11;99668.06;6260495;27;97486;-73
2022/04/17 11:46:06;;;;;;;;;4.50;4.00;;;;;19.26;20.86;99667.97;6264780;27;96462;-71
2022/04/17 11:49:14;;;;;;;;;4.00;4.00;;;;;18.94;20.72;99643.34;6265275;27;97379;-70
2022/04/17 11:52:19;;;;;;;;;4.00;4.00;;;;;18.85;21.06;99652.28;6257818;27;97641;-72
2022/04/17 11:55:30;;;;;;;;;5.00;5.00;;;;;18.75;21.04;99647.53;6242508;27;97817;-72
2022/04/17 11:58:35;;;;;;;;;5.00;4.40;;;;;18.81;20.89;99656.59;6260234;27;96565;-72
2022/04/17 12:01:38;;;;;;;;;5.00;5.00;;;;;18.83;20.78;99649.78;6259816;27;97567;-71
2022/04/17 12:04:42;;;;;;;;;3.00;3.00;;;;;18.88;20.44;99635.34;6254767;27;98006;-74
2022/04/17 12:07:57;;;;;;;;;4.00;4.00;;;;;18.81;20.95;99642.94;6244971;27;96930;-72
2022/04/17 12:11:01;;;;;;;;;3.60;3.60;;;;;18.80;21.27;99644.03;6240121;27;96857;-72
2022/04/17 12:14:06;;;;;;;;;4.00;4.00;;;;;18.59;20.02;99608.28;6242088;27;97461;-70
2022/04/17 12:17:10;;;;;;;;;4.00;3.40;;;;;18.66;20.55;99629.94;6261141;27;96945;-71
2022/04/17 12:20:15;;;;;;;;;4.00;3.00;;;;;18.40;20.57;99630.69;6258472;27;96858;-71
2022/04/17 12:23:18;;;;;;;;;4.40;4.40;;;;;18.33;21.36;99621.84;6244084;27;97420;-72
2022/04/17 12:26:22;;;;;;;;;6.80;6.20;;;;;18.32;21.73;99626.50;6239935;27;98080;-71
2022/04/17 12:29:27;;;;;;;;;5.00;5.00;;;;;18.33;21.72;99621.84;6238364;27;97460;-73
2022/04/17 12:32:30;;;;;;;;;5.40;5.00;;;;;18.30;21.23;99598.63;6257621;27;96653;-71
2022/04/17 12:35:34;;;;;;;;;3.40;3.40;;;;;18.46;22.02;99614.13;6257098;27;97632;-71
2022/04/17 12:38:39;;;;;;;;;2.00;2.00;;;;;18.63;20.87;99605.84;6256548;27;96907;-72
2022/04/17 12:41:46;;;;;;;;;3.00;3.00;;;;;18.62;20.63;99600.66;6240224;27;97791;-72
2022/04/17 12:44:50;;;;;;;;;2.75;2.00;;;;;18.46;20.66;99599.63;6227438;27;97256;-71
2022/04/17 12:48:05;;;;;;;;;4.00;4.00;;;;;18.28;21.18;99580.84;6237522;27;98079;-74
2022/04/17 12:51:09;;;;;;;;;5.00;4.00;;;;;18.46;21.08;99588.72;6258485;27;97472;-73
2022/04/17 12:54:49;;;;;;;;;2.20;2.20;;;;;18.40;21.45;99581.53;6261658;27;97121;-71
2022/04/17 12:57:57;;;;;;;;;2.00;2.00;;;;;18.32;21.89;99582.00;6229701;27;98592;-72
2022/04/17 13:01:01;;;;;;;;;4.40;4.00;;;;;18.15;21.10;99552.03;6243639;27;96882;-72
2022/04/17 13:04:16;;;;;;;;;2.60;2.40;;;;;18.16;22.13;99576.34;6227368;27;98432;-72
2022/04/17 13:07:20;;;;;;;;;4.00;3.00;;;;;18.21;21.55;99574.75;6237792;27;97659;-72
2022/04/17 13:10:30;;;;;;;;;2.60;2.60;;;;;18.16;21.65;99562.72;6220495;27;97540;-72
2022/04/17 13:13:38;;;;;;;;;4.00;4.00;;;;;18.42;21.12;99565.75;6235585;28;96991;-72
2022/04/17 13:16:51;;;;;;;;;2.00;2.00;;;;;18.86;21.81;99561.03;6252717;27;96367;-71
2022/04/17 13:19:54;;;;;;;;;2.60;2.60;;;;;19.01;21.31;99556.50;6260735;27;97401;-71
2022/04/17 13:22:58;;;;;;;;;3.00;3.00;;;;;18.90;20.14;99557.53;6241190;27;96957;-72
2022/04/17 13:26:01;;;;;;;;;4.00;4.00;;;;;18.83;20.76;99548.69;6233178;27;96852;-71
2022/04/17 13:29:04;;;;;;;;;4.00;3.00;;;;;18.62;20.86;99544.13;6243253;27;96817;-71
2022/04/17 13:32:11;;;;;;;;;4.20;4.00;;;;;18.52;20.74;99552.19;6243194;27;97052;-72
2022/04/17 13:35:17;;;;;;;;;4.00;4.00;;;;;18.25;21.60;99538.53;6249671;27;98455;-71
2022/04/17 13:38:20;;;;;;;;;3.75;3.75;;;;;18.23;21.65;99548.06;6234990;28;96607;-72
2022/04/17 13:41:26;;;;;;;;;5.00;5.00;;;;;18.22;21.31;99544.50;6230661;28;99280;-71
2022/04/17 13:44:30;;;;;;;;;3.80;3.80;;;;;18.18;22.24;99554.25;6231985;28;97213;-72
2022/04/17 13:47:36;;;;;;;;;4.60;4.00;;;;;18.27;21.67;99546.47;6234373;27;97564;-71
2022/04/17 13:50:39;;;;;;;;;4.00;4.00;;;;;18.35;21.57;99544.09;6225478;27;98358;-72
2022/04/17 13:53:43;;;;;;;;;5.00;5.00;;;;;18.48;20.78;99545.59;6219747;28;99602;-72
2022/04/17 13:56:46;;;;;;;;;3.40;3.40;;;;;18.67;21.29;99544.16;6236845;27;97340;-72
2022/04/17 13:59:50;;;;;;;;;5.00;4.00;;;;;18.85;20.83;99532.88;6222279;28;97486;-72
2022/04/17 14:02:55;;;;;;;;;3.00;3.00;;;;;18.93;21.67;99537.88;6236011;28;97401;-72
2022/04/17 14:06:00;;;;;;;;;3.00;2.00;;;;;19.04;21.63;99531.41;6223387;28;99539;-72
2022/04/17 14:09:04;;;;;;;;;3.00;2.60;;;;;19.04;21.08;99533.31;6236498;27;97232;-71
2022/04/17 14:12:10;;;;;;;;;3.00;3.00;;;;;18.83;20.67;99512.34;6230996;28;96696;-71
2022/04/17 14:15:14;;;;;;;;;3.00;2.50;;;;;18.92;21.25;99524.44;6236560;28;96432;-72
2022/04/17 14:18:19;;;;;;;;;3.20;3.20;;;;;18.77;20.64;99518.84;6232859;27;96746;-71
2022/04/17 14:21:22;;;;;;;;;3.00;3.00;;;;;18.44;21.42;99511.69;6227728;28;99734;-71
2022/04/17 14:24:25;;;;;;;;;5.00;4.00;;;;;18.12;21.79;99487.06;6221596;28;98206;-72
2022/04/17 14:27:29;;;;;;;;;2.80;2.20;;;;;18.25;22.07;99515.84;6236177;28;97971;-71
2022/04/17 14:30:32;;;;;;;;;3.00;3.00;;;;;18.14;22.01;99509.44;6235402;28;97657;-71
2022/04/17 14:33:42;;;;;;;;;3.20;3.20;;;;;18.06;22.46;99510.75;6245870;27;97290;-72
2022/04/17 14:36:45;;;;;;;;;3.00;3.00;;;;;18.00;21.98;99514.47;6244367;27;96540;-72
2022/04/17 14:39:48;;;;;;;;;4.00;3.00;;;;;17.88;21.09;99505.63;6236052;27;97716;-72
2022/04/17 14:42:51;;;;;;;;;4.00;4.00;;;;;17.88;21.34;99511.06;6227664;27;96745;-72